Time;durP1;ratioP1;P1;durP2;ratioP2;P2;SDS_P1;SDS_P2;PMS_P1;PMS_P2;Temp;Humidity;BMP_temperature;BMP_pressure;BME280_temperature;BME280_humidity;BME280_pressure;Samples;Min_cycle;Max_cycle;Signal;HPM_P1;HPM_P2
2022/06/24 06:02:09;;;;;;;159.32;83.07;;;;;;;18.47;78.19;95964.00;2097939;27;20580;-60
2022/06/24 06:03:11;;;;;;;179.98;124.90;;;;;;;18.50;77.28;95963.72;2115169;28;20203;-60
2022/06/24 06:04:12;;;;;;;212.77;171.02;;;;;;;18.37;78.02;95964.81;2112414;28;20235;-61
2022/06/24 06:05:14;;;;;;;216.18;189.23;;;;;;;18.50;78.22;95967.22;2099219;28;20270;-60
2022/06/24 06:17:50;;;;;;;131.25;36.58;;;;;;;18.95;74.93;95970.41;2074856;28;20576;-61
2022/06/24 06:18:52;;;;;;;135.48;47.35;;;;;;;19.00;75.21;95969.03;2084576;28;20192;-59
2022/06/24 06:19:54;;;;;;;134.45;38.03;;;;;;;19.14;75.35;95973.06;2077145;28;20193;-61
2022/06/24 06:27:51;;;;;;;135.07;35.10;;;;;;;19.72;74.00;95976.69;2080037;28;20565;-59
2022/06/24 06:28:53;;;;;;;128.20;42.38;;;;;;;19.56;74.17;95983.38;2085436;28;20205;-61
2022/06/24 06:37:33;;;;;;;145.40;52.53;;;;;;;18.71;73.65;95974.22;2089025;27;20559;-60
2022/06/24 06:38:35;;;;;;;118.20;26.52;;;;;;;18.65;73.13;95972.97;2094049;28;20191;-60
2022/06/24 06:39:37;;;;;;;133.68;25.70;;;;;;;18.81;73.30;95982.19;2090298;28;20223;-60
2022/06/24 06:40:39;;;;;;;143.13;52.15;;;;;;;19.02;72.06;95976.81;2086874;28;20659;-60
2022/06/24 06:47:12;;;;;;;132.25;27.48;;;;;;;19.67;70.61;95982.41;2089791;28;20539;-59
2022/06/24 06:48:14;;;;;;;122.15;35.75;;;;;;;19.85;69.93;95981.72;2081726;28;20659;-59
2022/06/24 06:49:15;;;;;;;146.23;74.75;;;;;;;19.84;68.41;95980.03;2081599;28;20201;-60
2022/06/24 06:50:17;;;;;;;151.75;81.88;;;;;;;19.92;68.50;95977.50;2083649;28;20196;-59
2022/06/24 06:51:18;;;;;;;149.60;80.30;;;;;;;20.08;67.72;95984.88;2083063;28;20934;-60
2022/06/24 06:52:21;;;;;;;141.85;82.35;;;;;;;19.99;68.30;95975.97;2076359;28;20196;-60
2022/06/24 06:53:23;;;;;;;144.77;82.22;;;;;;;20.22;68.46;95988.88;2089573;28;20188;-60
2022/06/24 06:54:25;;;;;;;151.10;84.60;;;;;;;20.26;67.56;95976.16;2089141;28;20193;-60
2022/06/24 06:55:26;;;;;;;136.52;62.08;;;;;;;20.22;67.82;95975.63;2084467;28;20223;-60
2022/06/24 06:56:27;;;;;;;127.75;41.20;;;;;;;20.32;67.52;95986.19;2078708;28;20204;-60
2022/06/24 07:04:39;;;;;;;126.85;25.52;;;;;;;20.36;67.30;95983.09;2107534;27;20913;-60
2022/06/24 07:05:42;;;;;;;130.32;49.75;;;;;;;20.45;66.35;95977.91;2103550;28;20195;-60
2022/06/24 07:06:44;;;;;;;123.03;34.47;;;;;;;20.46;67.58;95984.88;2102658;28;20209;-61
2022/06/24 07:07:45;;;;;;;140.48;73.20;;;;;;;20.62;66.64;95977.13;2096896;27;20913;-60
2022/06/24 07:08:47;;;;;;;127.60;34.65;;;;;;;20.53;67.04;95978.84;2093634;28;20195;-62
2022/06/24 07:09:48;;;;;;;116.00;28.88;;;;;;;20.52;66.40;95982.47;2095294;28;20196;-61
2022/06/24 07:16:20;;;;;;;118.53;24.75;;;;;;;20.63;65.23;95981.47;2100625;27;20582;-61
2022/06/24 07:17:22;;;;;;;141.20;56.47;;;;;;;20.58;65.90;95982.88;2086169;28;20225;-61
2022/06/24 07:18:24;;;;;;;110.32;24.88;;;;;;;21.01;64.39;95999.97;2098325;28;20323;-60
2022/06/24 07:19:25;;;;;;;111.68;12.25;;;;;;;20.97;63.86;95959.63;2092380;28;20258;-60
2022/06/24 07:20:27;;;;;;;114.70;15.10;;;;;;;21.13;63.61;95990.00;2079496;28;20284;-60
2022/06/24 07:21:32;;;;;;;112.38;25.83;;;;;;;21.07;64.71;95961.41;2079644;28;20196;-60
2022/06/24 07:22:33;;;;;;;112.70;12.73;;;;;;;21.25;63.25;95991.44;2083865;28;20218;-60
2022/06/24 07:23:35;;;;;;;125.28;30.63;;;;;;;21.16;63.40;95981.72;2098017;28;20196;-61
2022/06/24 07:24:37;;;;;;;140.23;39.58;;;;;;;20.85;62.62;95977.59;2091572;28;20233;-61
2022/06/24 07:31:56;;;;;;;122.50;27.77;;;;;;;20.95;64.38;95977.53;2124206;27;20543;-61
2022/06/24 07:32:58;;;;;;;127.30;35.28;;;;;;;20.96;64.64;95981.88;2109355;27;20318;-62
2022/06/24 07:34:03;;;;;;;132.75;33.88;;;;;;;21.00;64.13;95971.75;2119721;28;20276;-61
2022/06/24 07:40:17;;;;;;;145.00;65.07;;;;;;;21.03;62.36;95953.72;2090509;28;20569;-60
2022/06/24 07:41:19;;;;;;;148.63;60.83;;;;;;;21.11;62.70;95968.06;2086246;28;20196;-62
2022/06/24 07:42:21;;;;;;;133.43;34.47;;;;;;;20.97;63.17;95943.72;2076064;28;20212;-61
2022/06/24 07:43:23;;;;;;;133.35;53.20;;;;;;;21.45;63.86;95976.19;2091785;28;20279;-62
2022/06/24 07:44:25;;;;;;;157.27;69.85;;;;;;;21.48;62.74;95977.69;2086019;28;20208;-62
2022/06/24 07:45:27;;;;;;;162.60;71.65;;;;;;;21.00;63.65;95955.84;2078540;28;20258;-61
2022/06/24 07:46:28;;;;;;;146.27;60.80;;;;;;;21.39;63.10;95968.81;2078136;28;20553;-61
2022/06/24 07:47:30;;;;;;;168.23;96.70;;;;;;;21.41;62.18;95958.91;2077149;28;20224;-61
2022/06/24 07:48:32;;;;;;;172.93;99.18;;;;;;;21.35;61.98;95940.91;2078119;28;20235;-62
2022/06/24 07:49:37;;;;;;;180.82;129.43;;;;;;;21.48;62.25;95969.72;2078093;28;20681;-61
2022/06/24 07:50:39;;;;;;;198.40;161.82;;;;;;;21.68;60.47;95970.44;2078282;28;20295;-61
2022/06/24 07:58:01;;;;;;;131.57;26.20;;;;;;;22.14;61.19;95967.56;2084505;27;20935;-66
2022/06/24 07:59:03;;;;;;;156.15;96.65;;;;;;;22.53;59.33;95964.50;2090313;28;20314;-65
2022/06/24 08:00:06;;;;;;;171.65;111.05;;;;;;;22.22;57.99;95962.31;2083219;28;20196;-67
2022/06/24 08:01:13;;;;;;;162.75;116.25;;;;;;;22.54;58.91;95949.34;2083269;28;20200;-66
2022/06/24 08:02:15;;;;;;;149.93;82.68;;;;;;;22.52;58.04;95946.84;2070418;28;20228;-67
2022/06/24 08:03:17;;;;;;;120.05;22.33;;;;;;;22.53;57.98;95956.50;2080231;28;20201;-66
2022/06/24 08:04:21;;;;;;;109.93;19.42;;;;;;;22.37;58.30;95954.59;2079670;28;20200;-66
2022/06/24 08:05:23;;;;;;;114.35;16.90;;;;;;;22.58;58.05;95961.38;2080480;28;20208;-66
2022/06/24 08:06:25;;;;;;;105.80;15.40;;;;;;;22.32;59.36;95964.84;2082864;28;20205;-67
2022/06/24 08:13:32;;;;;;;147.52;52.25;;;;;;;22.33;61.87;95961.19;2108054;27;20543;-66
2022/06/24 08:14:36;;;;;;;139.02;76.55;;;;;;;22.22;61.37;95961.47;2110760;28;20194;-67
2022/06/24 08:15:37;;;;;;;158.48;95.55;;;;;;;22.24;61.66;95949.69;2110198;28;20285;-67
2022/06/24 08:16:40;;;;;;;117.93;26.73;;;;;;;22.20;60.78;95955.50;2102516;28;20236;-67
2022/06/24 08:17:48;;;;;;;141.20;73.30;;;;;;;22.33;61.29;95938.13;2080893;28;20224;-67
2022/06/24 08:18:55;;;;;;;118.32;28.67;;;;;;;22.48;60.91;95953.50;2086020;28;20334;-67
2022/06/24 08:19:57;;;;;;;118.65;28.88;;;;;;;22.56;60.31;95947.38;2086337;28;20283;-67
2022/06/24 08:21:02;;;;;;;114.90;12.30;;;;;;;22.52;59.95;95924.75;2084905;28;20242;-66
2022/06/24 08:22:04;;;;;;;108.53;10.05;;;;;;;22.59;59.29;95939.91;2076452;28;20200;-66
2022/06/24 08:23:06;;;;;;;106.35;5.65;;;;;;;22.01;58.18;95886.44;2078024;28;20205;-67
2022/06/24 08:24:09;;;;;;;104.60;6.15;;;;;;;22.41;57.97;95907.25;2086359;28;20196;-66
2022/06/24 08:25:11;;;;;;;103.55;9.27;;;;;;;23.20;57.88;95942.41;2086207;28;20699;-67
2022/06/24 08:26:23;;;;;;;113.20;15.52;;;;;;;23.74;58.04;95947.25;2085240;28;20255;-66
2022/06/24 08:27:25;;;;;;;105.20;9.55;;;;;;;24.02;56.91;95949.56;2086003;28;20304;-66
2022/06/24 08:37:04;;;;;;;107.65;4.40;;;;;;;23.66;55.76;95931.28;2105322;27;20551;-66
2022/06/24 08:38:05;;;;;;;105.13;6.47;;;;;;;23.76;56.28;95915.94;2103348;28;20661;-66
2022/06/24 08:39:07;;;;;;;104.57;6.00;;;;;;;24.00;55.60;95934.75;2094744;28;20207;-66
2022/06/24 08:40:10;;;;;;;108.50;7.75;;;;;;;24.12;54.96;95930.72;2086743;28;20334;-66
2022/06/24 08:41:13;;;;;;;108.68;10.10;;;;;;;23.88;54.08;95928.91;2094892;28;20221;-66
2022/06/24 08:42:15;;;;;;;109.90;12.25;;;;;;;24.10;54.57;95930.91;2093448;28;20223;-66
2022/06/24 08:43:20;;;;;;;114.07;22.25;;;;;;;24.10;53.28;95928.25;2091983;28;20665;-65
2022/06/24 08:49:55;;;;;;;115.07;5.78;;;;;;;24.43;53.05;95917.47;2119920;27;20545;-65
2022/06/24 08:51:00;;;;;;;117.47;28.92;;;;;;;24.52;51.51;95925.41;2115289;28;20224;-65
2022/06/24 08:52:05;;;;;;;118.97;36.20;;;;;;;24.68;51.53;95904.03;2109814;28;20559;-64
2022/06/24 08:53:09;;;;;;;102.93;10.20;;;;;;;24.59;50.76;95921.06;2099032;28;20206;-65
2022/06/24 08:54:12;;;;;;;122.22;36.67;;;;;;;24.29;52.54;95919.00;2099864;28;20342;-66
2022/06/24 08:55:34;;;;;;;103.03;8.05;;;;;;;24.07;51.59;95917.06;2098326;28;20235;-66
2022/06/24 08:56:36;;;;;;;102.93;9.63;;;;;;;23.93;51.75;95922.13;2101624;28;20255;-66
2022/06/24 09:02:48;;;;;;;110.53;17.48;;;;;;;24.48;51.45;95924.09;2091044;27;20583;-64
2022/06/24 09:03:52;;;;;;;112.63;26.80;;;;;;;24.13;52.18;95922.56;2098800;28;20194;-63
2022/06/24 09:05:07;;;;;;;120.97;37.35;;;;;;;24.01;52.19;95920.41;2080229;28;20229;-64
2022/06/24 09:06:14;;;;;;;125.85;37.22;;;;;;;24.17;51.53;95915.03;2078963;28;20205;-66
2022/06/24 09:07:28;;;;;;;124.18;41.95;;;;;;;24.54;50.77;95913.56;2076853;28;20682;-65
2022/06/24 09:08:33;;;;;;;121.93;16.88;;;;;;;25.31;50.76;95917.31;2101551;28;20233;-64
2022/06/24 09:09:34;;;;;;;112.65;29.05;;;;;;;25.64;48.70;95917.09;2089380;28;20255;-64
2022/06/24 09:10:39;;;;;;;126.32;43.50;;;;;;;25.45;50.74;95909.59;2081317;28;20224;-65
2022/06/24 09:11:52;;;;;;;115.45;26.95;;;;;;;25.90;50.32;95897.13;2081474;28;20208;-65
2022/06/24 09:12:54;;;;;;;124.85;45.20;;;;;;;25.86;49.74;95906.53;2079528;28;20216;-66
2022/06/24 09:14:00;;;;;;;124.25;43.72;;;;;;;25.24;52.02;95892.31;2089336;28;20203;-66
2022/06/24 09:15:03;;;;;;;189.45;86.60;;;;;;;25.00;52.92;95907.53;2082495;28;20292;-65
2022/06/24 09:16:07;;;;;;;120.80;29.75;;;;;;;25.06;52.66;95893.44;2081292;28;20665;-65
2022/06/24 09:17:10;;;;;;;128.90;46.15;;;;;;;24.89;52.40;95878.56;2074257;28;20251;-65
2022/06/24 09:18:20;;;;;;;105.00;13.43;;;;;;;25.32;51.51;95888.75;2096508;28;20196;-65
2022/06/24 09:19:24;;;;;;;100.65;6.28;;;;;;;25.21;50.80;95882.00;2093262;28;20645;-65
2022/06/24 09:26:02;;;;;;;109.75;17.55;;;;;;;26.52;45.29;95906.63;2105916;27;21093;-64
2022/06/24 09:27:05;;;;;;;118.25;26.70;;;;;;;26.50;45.00;95910.50;2094050;27;20202;-63
2022/06/24 09:28:06;;;;;;;117.97;26.35;;;;;;;26.57;44.71;95911.44;2111521;28;20194;-64
2022/06/24 09:29:16;;;;;;;113.93;24.88;;;;;;;26.09;45.03;95903.78;2102262;28;20187;-64
2022/06/24 09:30:18;;;;;;;117.72;33.95;;;;;;;25.47;47.77;95875.47;2094644;28;20206;-65
2022/06/24 09:31:24;;;;;;;122.68;40.25;;;;;;;25.16;47.20;95893.22;2095177;28;20199;-65
2022/06/24 09:32:25;;;;;;;113.65;24.05;;;;;;;24.94;47.78;95882.34;2090766;28;20309;-65
2022/06/24 09:33:27;;;;;;;129.85;46.58;;;;;;;24.85;48.35;95875.41;2111672;28;20191;-65
2022/06/24 09:34:34;;;;;;;110.40;15.48;;;;;;;25.16;46.77;95905.75;2101491;28;20206;-65
2022/06/24 09:40:16;;;;;;;112.07;11.02;;;;;;;25.59;45.82;95912.28;2075558;28;20551;-61
2022/06/24 09:41:17;;;;;;;116.25;31.80;;;;;;;25.60;46.13;95899.75;2069111;28;20201;-60
2022/06/24 09:42:19;;;;;;;120.82;22.77;;;;;;;25.35;45.33;95912.47;2059899;28;20247;-61
2022/06/24 09:43:30;;;;;;;120.47;40.35;;;;;;;25.14;48.25;95900.59;2068569;28;20228;-60
2022/06/24 09:44:45;;;;;;;111.70;18.17;;;;;;;25.34;47.28;95900.94;2058309;28;20196;-61
2022/06/24 09:45:51;;;;;;;104.85;9.20;;;;;;;25.39;47.91;95890.56;2052136;28;20214;-61
2022/06/24 09:47:04;;;;;;;100.32;3.63;;;;;;;25.01;50.19;95916.38;2051623;28;20299;-60
2022/06/24 09:48:06;;;;;;;96.13;2.80;;;;;;;25.39;50.47;95908.44;2051942;28;20246;-61
2022/06/24 09:49:13;;;;;;;96.15;3.38;;;;;;;25.43;50.85;95907.91;2051970;28;20195;-60
2022/06/24 09:55:55;;;;;;;97.43;4.05;;;;;;;25.14;51.44;95910.44;2118444;27;20547;-60
2022/06/24 09:56:58;;;;;;;102.30;3.53;;;;;;;25.23;51.49;95920.88;2111442;28;20190;-60
2022/06/24 09:57:59;;;;;;;96.13;3.80;;;;;;;25.09;51.91;95914.47;2101387;28;20270;-61
2022/06/24 10:04:37;;;;;;;100.78;4.72;;;;;;;25.98;48.74;95907.75;2101734;27;20587;-59
2022/06/24 10:05:44;;;;;;;96.85;3.30;;;;;;;26.44;47.00;95897.91;2100847;28;20634;-59
2022/06/24 10:06:48;;;;;;;105.40;8.35;;;;;;;25.33;48.04;95903.78;2099559;28;20187;-59
2022/06/24 10:07:50;;;;;;;98.38;3.97;;;;;;;25.72;48.48;95900.13;2082104;28;20247;-59
2022/06/24 10:08:52;;;;;;;99.45;2.60;;;;;;;26.09;48.31;95898.44;2098749;28;20196;-59
2022/06/24 10:10:08;;;;;;;99.07;4.75;;;;;;;26.18;47.42;95905.38;2080176;28;20204;-59
2022/06/24 10:11:12;;;;;;;101.03;6.32;;;;;;;25.77;47.80;95903.09;2080798;28;20232;-60
2022/06/24 10:12:17;;;;;;;99.40;3.60;;;;;;;25.95;48.15;95894.72;2077549;28;21150;-59
2022/06/24 10:13:27;;;;;;;101.97;3.30;;;;;;;25.49;49.58;95901.00;2106164;28;20642;-60
2022/06/24 10:14:29;;;;;;;104.25;4.45;;;;;;;26.19;49.46;95908.88;2093920;28;20192;-59
2022/06/24 10:15:31;;;;;;;104.57;4.93;;;;;;;26.34;48.70;95903.53;2083822;28;20671;-60
2022/06/24 10:16:34;;;;;;;98.53;3.75;;;;;;;26.03;48.63;95907.16;2084196;28;20564;-60
2022/06/24 10:17:36;;;;;;;96.38;4.10;;;;;;;25.75;49.13;95905.97;2084765;28;20252;-61
2022/06/24 10:18:42;;;;;;;100.03;4.22;;;;;;;25.91;48.38;95899.63;2090890;28;20238;-60
2022/06/24 10:19:45;;;;;;;110.18;21.95;;;;;;;26.14;47.84;95884.53;2090910;28;20597;-60
2022/06/24 10:20:50;;;;;;;104.20;14.38;;;;;;;26.06;47.98;95894.31;2090828;28;20192;-60
2022/06/24 10:21:51;;;;;;;131.55;61.22;;;;;;;26.04;46.90;95904.34;2088858;28;20207;-60
2022/06/24 10:22:56;;;;;;;129.00;57.45;;;;;;;25.94;47.53;95910.94;2096222;28;20385;-60
2022/06/24 10:23:57;;;;;;;129.27;43.97;;;;;;;25.98;47.73;95906.91;2108597;28;20199;-60
2022/06/24 10:24:59;;;;;;;118.43;33.50;;;;;;;26.27;46.50;95903.47;2091671;28;20207;-60
2022/06/24 10:26:09;;;;;;;111.70;13.23;;;;;;;26.46;44.66;95903.88;2086886;28;20208;-60
2022/06/24 10:27:10;;;;;;;112.10;23.83;;;;;;;25.98;45.84;95906.91;2078700;28;20192;-60
2022/06/24 10:28:12;;;;;;;122.72;42.20;;;;;;;25.79;46.31;95895.72;2104716;28;20220;-60
2022/06/24 10:29:13;;;;;;;136.10;69.93;;;;;;;25.59;47.45;95901.59;2098822;28;20212;-60
2022/06/24 10:30:52;;;;;;;137.65;77.43;;;;;;;25.45;48.45;95898.91;2086000;28;20265;-60
2022/06/24 10:31:57;;;;;;;125.93;47.30;;;;;;;25.41;47.41;95903.75;2086437;28;20264;-60
2022/06/24 10:33:19;;;;;;;121.70;37.50;;;;;;;25.12;48.03;95901.78;2095190;28;20225;-60
2022/06/24 10:41:11;;;;;;;112.32;23.90;;;;;;;26.18;45.75;95902.72;2094020;27;20547;-62
2022/06/24 10:42:20;;;;;;;121.53;28.75;;;;;;;26.02;44.32;95892.16;2074408;28;20254;-63
2022/06/24 10:43:33;;;;;;;120.85;27.15;;;;;;;25.55;45.07;95896.81;2092894;28;20280;-62
2022/06/24 10:44:38;;;;;;;124.97;43.20;;;;;;;25.90;45.37;95908.66;2082222;28;20197;-63
2022/06/24 10:45:40;;;;;;;127.15;48.00;;;;;;;25.96;45.46;95901.75;2076561;28;20205;-63
2022/06/24 10:46:41;;;;;;;115.40;18.48;;;;;;;25.58;45.16;95902.63;2076573;28;20203;-63
2022/06/24 10:47:43;;;;;;;113.13;23.08;;;;;;;24.95;46.30;95896.56;2076324;28;20227;-63
2022/06/24 10:48:51;;;;;;;108.82;14.88;;;;;;;25.32;45.90;95902.97;2090722;28;20279;-62
2022/06/24 10:49:52;;;;;;;113.65;24.48;;;;;;;25.34;45.38;95905.44;2076576;28;20201;-63
2022/06/24 10:51:12;;;;;;;117.63;32.00;;;;;;;25.52;45.61;95894.47;2075976;28;20213;-63
2022/06/24 10:52:38;;;;;;;131.32;57.45;;;;;;;25.84;45.71;95901.38;2074619;28;20739;-63
2022/06/24 10:54:01;;;;;;;124.47;49.13;;;;;;;25.66;45.57;95899.03;2092681;28;20191;-63
2022/06/24 10:55:14;;;;;;;131.25;43.58;;;;;;;25.69;45.61;95901.34;2085612;28;20204;-64
2022/06/24 10:56:46;;;;;;;114.20;23.70;;;;;;;26.12;44.85;95897.25;2075073;28;20202;-63
2022/06/24 10:58:08;;;;;;;116.75;29.40;;;;;;;26.65;43.69;95900.63;2074386;28;20221;-64
2022/06/24 10:59:10;;;;;;;106.65;10.10;;;;;;;26.98;42.61;95894.03;2075190;28;20193;-64
2022/06/24 11:00:20;;;;;;;112.35;18.88;;;;;;;27.37;41.08;95895.44;2075862;28;20193;-64
2022/06/24 11:01:21;;;;;;;105.13;11.63;;;;;;;28.07;40.55;95892.09;2076056;28;20548;-65
2022/06/24 11:02:23;;;;;;;123.07;40.85;;;;;;;28.84;38.88;95893.72;2075762;28;20229;-64
2022/06/24 11:03:31;;;;;;;106.90;11.75;;;;;;;28.78;39.93;95886.47;2075034;28;20200;-65
2022/06/24 11:04:33;;;;;;;110.93;27.52;;;;;;;28.70;38.31;95889.34;2076678;28;20197;-65
2022/06/24 11:05:37;;;;;;;110.38;24.50;;;;;;;28.90;38.79;95878.66;2077983;28;20220;-65
2022/06/24 11:06:39;;;;;;;109.38;22.13;;;;;;;29.11;38.39;95888.41;2078112;28;20204;-66
2022/06/24 11:07:48;;;;;;;108.28;22.92;;;;;;;28.86;38.65;95893.53;2075690;28;20225;-65
2022/06/24 11:08:50;;;;;;;113.20;30.30;;;;;;;28.31;38.56;95896.16;2075811;28;20420;-65
2022/06/24 11:09:51;;;;;;;138.38;69.72;;;;;;;27.66;39.38;95886.41;2076931;28;20201;-65
2022/06/24 11:10:53;;;;;;;109.05;24.60;;;;;;;27.58;40.96;95896.47;2075288;28;20194;-64
2022/06/24 11:11:55;;;;;;;113.32;29.55;;;;;;;27.57;40.89;95897.50;2075658;28;20197;-64
2022/06/24 11:13:00;;;;;;;133.35;63.70;;;;;;;27.08;40.37;95885.69;2076095;28;20311;-65
2022/06/24 11:14:25;;;;;;;121.15;47.75;;;;;;;26.82;41.36;95887.06;2077384;28;20201;-64
2022/06/24 11:15:49;;;;;;;111.95;28.33;;;;;;;26.70;41.24;95892.03;2074962;28;20193;-65
2022/06/24 11:16:51;;;;;;;114.38;34.40;;;;;;;26.94;40.98;95892.75;2074207;28;20197;-64
2022/06/24 11:17:55;;;;;;;108.85;20.55;;;;;;;27.35;40.73;95898.31;2075021;28;20264;-65
2022/06/24 11:18:57;;;;;;;111.35;25.60;;;;;;;27.33;40.90;95894.16;2076715;28;20197;-65
2022/06/24 11:20:00;;;;;;;110.72;14.75;;;;;;;27.36;40.93;95893.78;2077176;28;20220;-65
2022/06/24 11:21:08;;;;;;;109.47;20.58;;;;;;;27.41;40.20;95888.69;2076601;28;20557;-65
2022/06/24 11:22:09;;;;;;;107.60;18.17;;;;;;;27.07;41.24;95871.47;2075091;28;20536;-65
2022/06/24 11:23:12;;;;;;;106.07;16.13;;;;;;;27.05;41.02;95878.84;2073412;28;20525;-64
2022/06/24 11:24:21;;;;;;;105.68;15.45;;;;;;;27.19;41.80;95885.16;2074880;28;20197;-64
2022/06/24 11:25:23;;;;;;;110.70;22.25;;;;;;;27.25;40.60;95888.91;2076362;28;20307;-65
2022/06/24 11:26:25;;;;;;;110.45;21.38;;;;;;;26.59;41.56;95877.28;2077204;28;20256;-65
2022/06/24 11:27:35;;;;;;;106.82;18.05;;;;;;;26.45;41.61;95865.59;2076855;28;20225;-63
2022/06/24 11:28:38;;;;;;;114.55;34.10;;;;;;;26.53;41.30;95881.53;2076858;28;20201;-65
2022/06/24 11:29:50;;;;;;;108.85;19.73;;;;;;;26.75;41.39;95886.97;2075823;28;20197;-65
2022/06/24 11:30:54;;;;;;;115.03;36.38;;;;;;;26.52;41.09;95879.06;2075853;28;20201;-65
2022/06/24 11:31:55;;;;;;;106.90;18.20;;;;;;;26.28;42.12;95866.81;2076906;28;20668;-65
2022/06/24 11:33:01;;;;;;;106.50;18.90;;;;;;;26.71;41.67;95880.31;2076561;28;20236;-65
2022/06/24 11:34:03;;;;;;;109.47;19.17;;;;;;;26.71;41.98;95883.81;2074854;28;20202;-65
2022/06/24 11:35:04;;;;;;;110.55;19.10;;;;;;;26.53;41.74;95876.19;2075092;28;20198;-65
2022/06/24 11:36:07;;;;;;;111.93;26.50;;;;;;;26.91;41.65;95883.25;2075098;28;20198;-64
2022/06/24 11:37:09;;;;;;;123.28;33.92;;;;;;;27.02;41.53;95882.75;2075788;28;20193;-62
2022/06/24 11:38:11;;;;;;;120.90;32.50;;;;;;;27.27;40.65;95884.22;2077667;28;20673;-64
2022/06/24 11:39:13;;;;;;;107.10;18.30;;;;;;;27.36;40.66;95888.41;2077857;28;20205;-65
2022/06/24 11:40:22;;;;;;;106.88;18.08;;;;;;;27.03;40.65;95884.41;2072634;28;20254;-65
2022/06/24 11:41:34;;;;;;;111.03;21.45;;;;;;;27.31;40.33;95885.47;2074791;28;20280;-65
2022/06/24 11:42:54;;;;;;;111.82;19.92;;;;;;;27.12;40.38;95877.06;2089989;28;20653;-65
2022/06/24 11:43:57;;;;;;;110.30;24.17;;;;;;;27.01;40.38;95870.38;2087987;28;20197;-65
2022/06/24 11:44:58;;;;;;;112.13;30.40;;;;;;;26.61;41.18;95872.56;2076259;28;20201;-65
2022/06/24 11:46:00;;;;;;;107.32;17.92;;;;;;;27.34;40.37;95880.56;2075859;28;20193;-65
2022/06/24 11:47:04;;;;;;;106.80;18.55;;;;;;;27.40;40.89;95872.81;2074174;28;20197;-65
2022/06/24 11:48:11;;;;;;;105.95;15.68;;;;;;;27.29;40.65;95876.81;2074320;28;20704;-65
2022/06/24 11:49:13;;;;;;;109.20;16.60;;;;;;;27.27;39.83;95882.34;2074394;28;20216;-65
2022/06/24 11:50:19;;;;;;;107.95;20.98;;;;;;;27.31;40.34;95883.66;2075475;28;20828;-65
2022/06/24 11:51:22;;;;;;;110.10;20.92;;;;;;;27.18;40.81;95884.31;2075078;28;20202;-65
2022/06/24 11:52:23;;;;;;;106.22;16.35;;;;;;;26.95;40.80;95881.03;2068473;28;20677;-65
2022/06/24 11:53:25;;;;;;;106.63;16.48;;;;;;;26.99;41.11;95882.28;2069631;28;20692;-65
2022/06/24 11:54:28;;;;;;;106.05;17.83;;;;;;;26.95;41.22;95887.19;2068673;28;20201;-65
2022/06/24 11:55:38;;;;;;;109.80;24.63;;;;;;;27.15;41.28;95881.22;2069099;28;20194;-65
2022/06/24 11:56:42;;;;;;;115.47;23.92;;;;;;;27.33;41.43;95875.41;2068852;28;20198;-65
2022/06/24 11:57:44;;;;;;;115.30;24.15;;;;;;;27.41;40.53;95880.66;2066739;28;20222;-65
2022/06/24 11:58:45;;;;;;;108.00;22.45;;;;;;;27.38;41.57;95879.16;2069936;28;21079;-65
2022/06/24 11:59:47;;;;;;;106.18;18.10;;;;;;;27.99;39.52;95871.59;2069399;28;20194;-65
2022/06/24 12:00:52;;;;;;;106.03;16.52;;;;;;;28.57;38.66;95873.16;2072066;28;20216;-65
2022/06/24 12:01:54;;;;;;;104.57;15.90;;;;;;;28.95;37.37;95865.47;2070905;28;20560;-64
2022/06/24 12:02:56;;;;;;;126.95;43.10;;;;;;;29.37;37.13;95869.88;2068471;28;20223;-64
2022/06/24 12:04:01;;;;;;;114.53;35.28;;;;;;;29.69;36.27;95872.75;2068539;28;20214;-65
2022/06/24 12:05:10;;;;;;;127.97;61.03;;;;;;;29.60;36.02;95872.19;2069773;28;20202;-64
2022/06/24 12:06:11;;;;;;;132.57;66.85;;;;;;;29.68;35.95;95866.56;2068656;28;20198;-65
2022/06/24 12:07:13;;;;;;;134.63;80.15;;;;;;;30.03;35.26;95876.28;2069828;28;20214;-65
2022/06/24 12:08:15;;;;;;;136.73;83.72;;;;;;;30.10;35.49;95872.53;2070803;28;20217;-65
2022/06/24 12:09:17;;;;;;;126.95;62.55;;;;;;;30.01;34.21;95876.50;2068984;28;20194;-65
2022/06/24 12:10:19;;;;;;;125.97;58.25;;;;;;;30.36;34.45;95872.69;2069478;28;20255;-65
2022/06/24 12:11:22;;;;;;;138.60;87.70;;;;;;;30.34;34.96;95872.06;2070304;28;20566;-65
2022/06/24 12:12:23;;;;;;;103.43;23.25;;;;;;;30.14;33.58;95856.78;2070499;28;20225;-65
2022/06/24 12:13:32;;;;;;;104.67;25.23;;;;;;;30.11;34.23;95873.38;2070118;28;20202;-60
2022/06/24 12:14:33;;;;;;;113.00;30.13;;;;;;;29.65;35.09;95843.59;2069083;28;20430;-60
2022/06/24 12:15:37;;;;;;;93.70;3.65;;;;;;;29.56;33.91;95854.78;2071641;28;20442;-60
2022/06/24 12:16:59;;;;;;;92.75;4.80;;;;;;;30.01;34.46;95854.16;2067209;28;20214;-60
2022/06/24 12:18:01;;;;;;;103.35;15.48;;;;;;;30.06;34.59;95840.88;2069704;28;20235;-61
2022/06/24 12:19:08;;;;;;;94.07;8.97;;;;;;;29.97;33.79;95814.19;2070978;28;20204;-61
2022/06/24 12:20:10;;;;;;;98.37;14.37;;;;;;;30.17;34.43;95861.78;2070323;28;20439;-61
2022/06/24 12:21:12;;;;;;;102.90;17.63;;;;;;;30.11;34.30;95847.28;2070158;28;20419;-60
2022/06/24 12:22:18;;;;;;;96.25;8.60;;;;;;;29.77;34.51;95843.78;2062974;28;20431;-61
2022/06/24 12:23:37;;;;;;;101.80;20.70;;;;;;;30.32;34.19;95853.41;2081356;28;20228;-60
2022/06/24 12:24:40;;;;;;;93.83;3.83;;;;;;;30.28;33.34;95852.19;2076305;28;20419;-60
2022/06/24 12:25:44;;;;;;;92.30;2.90;;;;;;;29.93;33.52;95845.25;2068438;28;21190;-61
2022/06/24 12:26:45;;;;;;;91.40;2.63;;;;;;;30.11;34.12;95841.09;2069227;28;20435;-61
2022/06/24 12:27:49;;;;;;;94.47;7.00;;;;;;;29.97;34.71;95849.19;2069378;28;21025;-61
2022/06/24 12:29:03;;;;;;;96.43;10.80;;;;;;;29.88;33.13;95842.38;2069849;28;20428;-61
2022/06/24 12:30:06;;;;;;;93.77;3.60;;;;;;;29.27;34.40;95838.84;2066934;28;20428;-61
2022/06/24 12:31:09;;;;;;;94.80;6.27;;;;;;;29.83;34.26;95831.38;2068921;28;20427;-61
2022/06/24 12:32:11;;;;;;;90.37;2.60;;;;;;;30.27;33.53;95848.69;2069730;28;20429;-60
2022/06/24 12:33:14;;;;;;;91.07;2.37;;;;;;;30.43;33.21;95854.63;2068967;28;20510;-60
2022/06/24 12:34:27;;;;;;;91.50;2.27;;;;;;;30.51;32.83;95837.44;2069158;28;20428;-61
2022/06/24 12:35:41;;;;;;;91.50;2.27;;;;;;;30.24;33.39;95851.78;2069199;28;20437;-61
2022/06/24 12:37:05;;;;;;;91.37;2.37;;;;;;;29.56;34.57;95852.09;2068702;28;20508;-61
2022/06/24 12:38:12;;;;;;;94.00;2.47;;;;;;;29.32;35.70;95846.31;2071516;28;20443;-60
2022/06/24 12:39:13;;;;;;;97.53;6.63;;;;;;;29.93;34.37;95850.63;2069200;28;20914;-61
2022/06/24 12:40:22;;;;;;;96.40;4.33;;;;;;;30.23;34.12;95860.09;2071447;28;20430;-60
2022/06/24 12:41:24;;;;;;;92.03;5.30;;;;;;;30.14;34.40;95862.19;2070457;28;20435;-61
2022/06/24 12:42:25;;;;;;;89.87;2.20;;;;;;;29.41;34.38;95858.50;2068776;28;20466;-61
2022/06/24 12:43:27;;;;;;;93.27;2.23;;;;;;;27.78;36.89;95859.06;2069436;28;20435;-60
2022/06/24 12:44:40;;;;;;;92.50;5.10;;;;;;;28.07;36.74;95858.03;2068854;28;20547;-61
2022/06/24 12:45:43;;;;;;;91.30;3.40;;;;;;;28.27;36.02;95855.47;2069238;28;20439;-60
2022/06/24 12:51:04;;;;;;;90.90;2.50;;;;;;;27.45;37.13;95843.56;2068751;28;20428;-61
2022/06/24 12:52:06;;;;;;;102.43;20.63;;;;;;;27.54;37.94;95861.16;2066979;28;20826;-61
2022/06/24 12:53:08;;;;;;;93.27;7.20;;;;;;;27.76;37.01;95858.47;2068842;28;20241;-60
2022/06/24 12:54:10;;;;;;;103.10;7.60;;;;;;;27.65;36.90;95849.91;2070922;28;20423;-61
2022/06/24 12:55:14;;;;;;;102.22;19.10;;;;;;;26.93;38.49;95841.03;2070767;28;20442;-61
2022/06/24 12:56:16;;;;;;;135.27;80.60;;;;;;;27.44;39.00;95847.28;2068064;28;20197;-60
2022/06/24 12:57:17;;;;;;;116.03;46.60;;;;;;;27.39;38.03;95850.56;2069370;28;20423;-61